Great Falls, Montana
Current Conditions -  °F | °C
As of 6:53 PM on Saturday 25 Oct 2014 (Local Time) from KGTF Reporting Station
Clear Clear  
Wind Chill: 51°   Ceiling: Unl
Heat Index: 51°   Visibility: 10mi
Dew Point: 42°   Wind: 3mph
Humidity: 71%   Direction: 80°E
Pressure: 29.65"   Gusts: NA
Location:  47.51°N, 111.3°W
Report Text: KGTF 260053Z 08003KT 10SM CLR 11/06 A2965 RMK AO2 SLP050 T01060056
Loading
Personal Weather Stations






























Interactive Weather Map
Tropical Storm Tracking
New forecast layout! Learn more

10-Day Weather Forecast

Advertisements
Track Severe Weather on mobile